Time;durP1;ratioP1;P1;durP2;ratioP2;P2;SDS_P1;SDS_P2;PMS_P1;PMS_P2;Temp;Humidity;BMP_temperature;BMP_pressure;BME280_temperature;BME280_humidity;BME280_pressure;Samples;Min_cycle;Max_cycle;Signal;HPM_P1;HPM_P2
2023/08/31 00:01:30;;;;;;;5.07;2.03;;;12.20;82.00;;;;;;5090957;27;20110;-76
2023/08/31 00:03:57;;;;;;;6.97;1.77;;;12.20;82.10;;;;;;5106187;27;20048;-76
2023/08/31 00:06:24;;;;;;;8.07;1.77;;;12.20;82.10;;;;;;5072637;28;20249;-76
2023/08/31 00:08:51;;;;;;;5.60;1.50;;;12.20;82.10;;;;;;5092748;27;20536;-76
2023/08/31 00:11:18;;;;;;;5.63;1.60;;;12.20;82.30;;;;;;5095713;27;20060;-76
2023/08/31 00:13:46;;;;;;;4.80;1.20;;;12.20;82.20;;;;;;5099743;27;20054;-76
2023/08/31 00:16:13;;;;;;;5.88;1.40;;;12.20;82.30;;;;;;5139654;27;20342;-76
2023/08/31 00:18:41;;;;;;;5.47;1.15;;;12.20;82.70;;;;;;5089109;27;20051;-76
2023/08/31 00:21:09;;;;;;;6.55;1.23;;;12.20;82.70;;;;;;5106586;27;20243;-76
2023/08/31 00:23:36;;;;;;;4.47;1.10;;;12.10;82.80;;;;;;5095619;27;20056;-76
2023/08/31 00:26:05;;;;;;;6.00;1.17;;;12.20;82.90;;;;;;5106022;27;20137;-76
2023/08/31 00:28:32;;;;;;;4.68;1.30;;;12.20;83.20;;;;;;5122950;27;20582;-76
2023/08/31 00:31:03;;;;;;;6.03;1.25;;;12.10;83.30;;;;;;5107032;27;20513;-76
2023/08/31 00:33:30;;;;;;;5.38;0.90;;;12.10;83.50;;;;;;5114728;27;20040;-76
2023/08/31 00:36:01;;;;;;;4.47;1.10;;;12.10;83.50;;;;;;5135040;27;20049;-76
2023/08/31 00:38:28;;;;;;;7.38;1.50;;;12.10;83.70;;;;;;5083011;27;20123;-76
2023/08/31 00:40:56;;;;;;;5.60;1.38;;;12.20;83.70;;;;;;5109647;27;20057;-76
2023/08/31 00:43:24;;;;;;;5.90;1.40;;;12.20;83.90;;;;;;5091902;28;20104;-76
2023/08/31 00:45:56;;;;;;;4.28;1.02;;;12.20;83.80;;;;;;5143967;27;20171;-76
2023/08/31 00:48:26;;;;;;;4.30;1.17;;;12.20;83.80;;;;;;5092259;28;20492;-76
2023/08/31 00:50:54;;;;;;;5.20;1.00;;;12.20;83.80;;;;;;5103387;27;20044;-76
2023/08/31 00:53:22;;;;;;;4.75;1.08;;;12.20;83.80;;;;;;5105966;27;20127;-76
2023/08/31 00:55:50;;;;;;;7.97;1.23;;;12.20;83.70;;;;;;5123103;27;20063;-76
2023/08/31 00:58:17;;;;;;;4.15;1.00;;;12.20;83.70;;;;;;5091395;28;20153;-76
2023/08/31 01:00:51;;;;;;;3.50;0.70;;;12.20;83.60;;;;;;5084850;28;20135;-76
2023/08/31 01:03:27;;;;;;;7.45;1.10;;;12.20;83.60;;;;;;5105780;27;20053;-76
2023/08/31 01:06:10;;;;;;;5.20;0.88;;;12.20;83.60;;;;;;5105554;27;20058;-76
2023/08/31 01:08:49;;;;;;;3.67;0.70;;;12.20;83.50;;;;;;5086146;28;20780;-76
2023/08/31 01:11:31;;;;;;;3.40;0.80;;;12.10;83.40;;;;;;5116977;27;20056;-76
2023/08/31 01:14:09;;;;;;;3.00;0.57;;;12.20;83.20;;;;;;5102682;27;20084;-76
2023/08/31 01:16:36;;;;;;;4.78;1.00;;;12.10;83.10;;;;;;5076663;28;20482;-76
2023/08/31 01:19:06;;;;;;;3.53;0.68;;;12.10;83.10;;;;;;5100590;27;20646;-77
2023/08/31 01:21:40;;;;;;;4.65;0.60;;;12.10;83.00;;;;;;5091263;27;20242;-77
2023/08/31 01:24:10;;;;;;;3.75;0.82;;;12.10;83.00;;;;;;5088386;28;20215;-77
2023/08/31 01:26:39;;;;;;;3.03;0.70;;;12.10;82.90;;;;;;5108535;27;20098;-77
2023/08/31 01:29:06;;;;;;;3.63;0.68;;;12.10;82.80;;;;;;5095322;27;20045;-76
2023/08/31 01:31:33;;;;;;;4.28;0.90;;;12.10;82.80;;;;;;5104692;27;20123;-77
2023/08/31 01:34:02;;;;;;;3.67;0.73;;;12.10;82.80;;;;;;5091883;28;20133;-78
2023/08/31 01:36:30;;;;;;;3.80;0.82;;;12.00;82.70;;;;;;5108624;27;20055;-77
2023/08/31 01:39:04;;;;;;;4.07;0.90;;;12.00;82.80;;;;;;5108404;27;20050;-77
2023/08/31 01:41:36;;;;;;;5.07;1.00;;;12.00;82.80;;;;;;5099658;27;20127;-77
2023/08/31 01:44:06;;;;;;;4.13;1.20;;;12.00;82.90;;;;;;5108445;27;21035;-77
2023/08/31 01:46:34;;;;;;;5.18;1.30;;;12.00;82.90;;;;;;5108917;27;20047;-76
2023/08/31 01:49:01;;;;;;;5.60;1.58;;;12.00;82.90;;;;;;5092463;27;20844;-77
2023/08/31 01:51:30;;;;;;;6.10;1.50;;;12.00;83.00;;;;;;5121860;27;20138;-76
2023/08/31 01:53:58;;;;;;;6.13;1.65;;;12.00;83.00;;;;;;5108368;27;20054;-77
2023/08/31 01:56:26;;;;;;;4.18;1.30;;;12.00;83.10;;;;;;5090996;28;20060;-77
2023/08/31 01:58:55;;;;;;;5.43;1.70;;;12.00;83.20;;;;;;5106866;27;20048;-77
2023/08/31 02:01:22;;;;;;;5.57;1.77;;;12.00;83.30;;;;;;5075728;28;20052;-76
2023/08/31 02:03:49;;;;;;;5.13;1.73;;;12.00;83.30;;;;;;5087831;28;20098;-77
2023/08/31 02:06:16;;;;;;;6.43;1.80;;;12.00;83.40;;;;;;5088451;27;20079;-77
2023/08/31 02:08:47;;;;;;;4.93;2.00;;;11.90;83.40;;;;;;5092272;27;20068;-77
2023/08/31 02:11:14;;;;;;;5.47;1.92;;;11.90;83.50;;;;;;5090779;28;20093;-76
2023/08/31 02:13:42;;;;;;;5.22;2.03;;;11.90;83.60;;;;;;5091069;28;20051;-77
2023/08/31 02:16:11;;;;;;;5.13;1.87;;;11.90;83.70;;;;;;5083404;27;20048;-77
2023/08/31 02:18:38;;;;;;;6.53;2.03;;;11.90;83.90;;;;;;5109930;27;20040;-77
2023/08/31 02:21:07;;;;;;;4.00;2.10;;;12.00;83.90;;;;;;5134356;27;20048;-77
2023/08/31 02:23:36;;;;;;;6.53;2.08;;;12.00;84.00;;;;;;5105022;27;20551;-77
2023/08/31 02:26:03;;;;;;;6.57;2.42;;;12.00;84.10;;;;;;5104248;27;20130;-77
2023/08/31 02:28:30;;;;;;;4.67;1.93;;;12.00;84.10;;;;;;5113482;27;21055;-77
2023/08/31 02:31:04;;;;;;;4.95;2.20;;;12.00;84.10;;;;;;5104552;27;20048;-77
2023/08/31 02:33:35;;;;;;;5.43;1.98;;;12.00;84.10;;;;;;5123222;27;20496;-77
2023/08/31 02:36:02;;;;;;;4.95;1.92;;;12.00;84.10;;;;;;5087590;27;20140;-77
2023/08/31 02:38:29;;;;;;;5.18;2.05;;;12.00;84.20;;;;;;5100020;27;20052;-77
2023/08/31 02:40:56;;;;;;;6.43;2.13;;;12.00;84.20;;;;;;5087205;28;20076;-77
2023/08/31 02:43:25;;;;;;;4.72;2.00;;;12.00;84.30;;;;;;5085511;27;20056;-77
2023/08/31 02:46:00;;;;;;;7.25;2.22;;;12.00;84.20;;;;;;5127198;27;20095;-77
2023/08/31 02:48:27;;;;;;;4.70;1.98;;;12.00;84.30;;;;;;5077499;28;20048;-77
2023/08/31 02:50:57;;;;;;;4.40;1.75;;;12.00;84.20;;;;;;5102722;27;20157;-77
2023/08/31 02:53:24;;;;;;;4.77;1.70;;;11.90;84.10;;;;;;5087945;27;20048;-77
2023/08/31 02:55:51;;;;;;;4.65;1.63;;;12.00;84.10;;;;;;5084072;28;20072;-77
2023/08/31 02:58:19;;;;;;;4.43;1.83;;;11.90;84.00;;;;;;5122543;27;20048;-77
2023/08/31 03:00:48;;;;;;;4.50;1.52;;;11.90;83.90;;;;;;5086698;27;20495;-77
2023/08/31 03:03:16;;;;;;;4.63;1.85;;;11.90;83.90;;;;;;5107133;27;20758;-77
2023/08/31 03:05:44;;;;;;;4.33;1.53;;;11.90;83.70;;;;;;5106654;27;20082;-77
2023/08/31 03:08:14;;;;;;;4.28;1.60;;;11.90;83.70;;;;;;5090119;28;20044;-77
2023/08/31 03:10:42;;;;;;;3.75;1.70;;;11.90;83.70;;;;;;5107600;27;20490;-77
2023/08/31 03:13:09;;;;;;;5.70;1.80;;;11.90;83.70;;;;;;5082804;28;20154;-77
2023/08/31 03:15:36;;;;;;;4.32;1.67;;;11.90;83.60;;;;;;5088265;28;20045;-76
2023/08/31 03:18:03;;;;;;;4.67;1.90;;;11.90;83.60;;;;;;5101188;27;20555;-77
2023/08/31 03:20:30;;;;;;;7.03;1.90;;;11.90;83.60;;;;;;5125989;27;20139;-77
2023/08/31 03:22:57;;;;;;;4.13;1.80;;;11.80;83.50;;;;;;5093640;28;20064;-77
2023/08/31 03:25:28;;;;;;;3.92;1.60;;;11.80;83.60;;;;;;5093556;28;20051;-77
2023/08/31 03:27:55;;;;;;;3.70;1.52;;;11.80;83.70;;;;;;5093277;28;20698;-77
2023/08/31 03:30:23;;;;;;;4.50;1.50;;;11.70;83.70;;;;;;5093145;27;20055;-77
2023/08/31 03:32:50;;;;;;;4.38;1.63;;;11.70;83.70;;;;;;5145196;27;20044;-76
2023/08/31 03:35:17;;;;;;;4.97;2.28;;;11.70;83.70;;;;;;5080658;28;20041;-77
2023/08/31 03:37:48;;;;;;;3.90;1.90;;;11.70;83.70;;;;;;5089453;28;20052;-77
2023/08/31 03:40:15;;;;;;;4.38;2.30;;;11.70;83.70;;;;;;5089848;28;20048;-77
2023/08/31 03:42:43;;;;;;;4.60;1.77;;;11.70;83.70;;;;;;5100428;27;20052;-77
2023/08/31 03:45:11;;;;;;;6.60;2.38;;;11.70;83.70;;;;;;5093349;28;20056;-77
2023/08/31 03:47:38;;;;;;;4.28;2.20;;;11.70;83.90;;;;;;5092407;27;20040;-77
2023/08/31 03:50:23;;;;;;;5.50;2.25;;;11.70;83.80;;;;;;5090724;28;20049;-77
2023/08/31 03:52:51;;;;;;;4.47;2.17;;;11.70;83.90;;;;;;5089293;28;20048;-77
2023/08/31 03:55:19;;;;;;;4.33;2.30;;;11.70;83.90;;;;;;5090573;27;20049;-76
2023/08/31 03:57:47;;;;;;;6.95;2.90;;;11.70;83.80;;;;;;5092536;28;20048;-77
2023/08/31 04:00:19;;;;;;;5.10;2.47;;;11.70;84.00;;;;;;5126753;27;20071;-76
2023/08/31 04:02:46;;;;;;;4.53;2.72;;;11.70;84.20;;;;;;5130988;27;20062;-76
2023/08/31 04:05:18;;;;;;;6.55;3.10;;;11.70;84.20;;;;;;5141530;27;20048;-77
2023/08/31 04:07:45;;;;;;;6.63;3.17;;;11.70;84.30;;;;;;5092845;28;20048;-76
2023/08/31 04:10:12;;;;;;;5.65;3.00;;;11.70;84.40;;;;;;5091865;28;20052;-77
2023/08/31 04:12:39;;;;;;;7.00;3.50;;;11.70;84.40;;;;;;5092572;27;20054;-76
2023/08/31 04:15:11;;;;;;;6.53;3.63;;;11.70;84.60;;;;;;5101679;27;20600;-77
2023/08/31 04:17:38;;;;;;;6.70;3.58;;;11.60;84.70;;;;;;5122988;27;20044;-76
2023/08/31 04:20:07;;;;;;;5.93;3.60;;;11.70;84.70;;;;;;5101571;27;20131;-76
2023/08/31 04:22:35;;;;;;;5.18;2.75;;;11.70;85.00;;;;;;5109519;27;20048;-77
2023/08/31 04:25:02;;;;;;;5.78;3.15;;;11.70;84.90;;;;;;5141329;27;20418;-76
2023/08/31 04:27:30;;;;;;;6.15;2.90;;;11.70;84.90;;;;;;5108938;27;20052;-76
2023/08/31 04:29:58;;;;;;;5.93;3.40;;;11.70;85.00;;;;;;5108038;27;20056;-77
2023/08/31 04:32:26;;;;;;;5.37;2.87;;;11.70;84.90;;;;;;5109768;27;20052;-76
2023/08/31 04:34:54;;;;;;;5.95;3.40;;;11.70;84.90;;;;;;5105488;27;20053;-77
2023/08/31 04:37:22;;;;;;;5.88;3.25;;;11.60;85.00;;;;;;5109260;27;20044;-76
2023/08/31 04:39:50;;;;;;;5.47;3.20;;;11.60;85.10;;;;;;5110024;27;20524;-76
2023/08/31 04:42:17;;;;;;;6.80;3.30;;;11.60;85.10;;;;;;5092585;27;20048;-76
2023/08/31 04:44:44;;;;;;;7.00;3.47;;;11.60;85.20;;;;;;5108554;27;20052;-77
2023/08/31 04:47:12;;;;;;;6.20;3.33;;;11.60;85.40;;;;;;5080887;28;20516;-77
2023/08/31 04:49:40;;;;;;;5.20;2.85;;;11.70;85.40;;;;;;5120752;27;20056;-76
2023/08/31 04:52:24;;;;;;;6.28;3.53;;;11.60;85.30;;;;;;5089539;28;20135;-77
2023/08/31 04:54:50;;;;;;;6.78;3.22;;;11.60;85.40;;;;;;5133837;27;20688;-77
2023/08/31 04:57:17;;;;;;;5.70;2.90;;;11.60;85.40;;;;;;5089579;27;20048;-77
2023/08/31 04:59:44;;;;;;;5.93;2.90;;;11.60;85.50;;;;;;5129072;27;20044;-77
2023/08/31 05:02:11;;;;;;;7.13;2.97;;;11.70;85.50;;;;;;5116639;27;20964;-77
2023/08/31 05:04:40;;;;;;;6.53;2.80;;;11.70;85.60;;;;;;5116368;27;20155;-77
2023/08/31 05:07:07;;;;;;;4.97;2.35;;;11.60;85.50;;;;;;5111687;27;20145;-76
2023/08/31 05:09:34;;;;;;;6.17;2.60;;;11.60;85.70;;;;;;5078201;27;20535;-77
2023/08/31 05:12:02;;;;;;;6.10;2.58;;;11.70;85.60;;;;;;5096606;27;20155;-76
2023/08/31 05:14:29;;;;;;;5.72;2.50;;;11.70;85.80;;;;;;5114019;27;20052;-77
2023/08/31 05:16:57;;;;;;;5.78;2.20;;;11.70;86.00;;;;;;5095850;27;20133;-77
2023/08/31 05:19:24;;;;;;;5.93;2.47;;;11.70;86.10;;;;;;5087286;27;20136;-77
2023/08/31 05:21:52;;;;;;;5.77;2.40;;;11.70;86.00;;;;;;5121846;27;20055;-76
2023/08/31 05:24:19;;;;;;;5.78;1.92;;;11.70;86.10;;;;;;5092007;27;20143;-77
2023/08/31 05:26:46;;;;;;;5.40;2.33;;;11.70;86.40;;;;;;5142558;27;20102;-76
2023/08/31 05:29:13;;;;;;;5.30;2.10;;;11.70;86.40;;;;;;5075707;28;20528;-76
2023/08/31 05:31:40;;;;;;;7.15;2.33;;;11.70;86.60;;;;;;5103808;27;20052;-76
2023/08/31 05:34:07;;;;;;;5.77;2.20;;;11.70;86.60;;;;;;5116211;27;20047;-77
2023/08/31 05:36:34;;;;;;;5.45;2.20;;;11.70;86.80;;;;;;5101309;27;20640;-76
2023/08/31 05:39:02;;;;;;;7.80;2.33;;;11.70;86.90;;;;;;5115208;27;20056;-76
2023/08/31 05:41:29;;;;;;;5.53;1.85;;;11.70;87.10;;;;;;5111672;27;20135;-76
2023/08/31 05:43:56;;;;;;;7.05;2.20;;;11.80;87.20;;;;;;5097615;27;20560;-76
2023/08/31 05:46:23;;;;;;;7.43;2.40;;;11.80;87.40;;;;;;5099514;27;20636;-76
2023/08/31 05:48:52;;;;;;;7.57;2.20;;;11.90;87.40;;;;;;5116357;27;20471;-77
2023/08/31 05:51:19;;;;;;;6.38;2.30;;;11.90;87.50;;;;;;5098447;27;20058;-77
2023/08/31 05:53:46;;;;;;;7.32;2.35;;;11.90;87.70;;;;;;5132554;27;20537;-77
2023/08/31 05:56:14;;;;;;;5.20;2.00;;;11.90;87.80;;;;;;5094926;27;20046;-77
2023/08/31 05:58:41;;;;;;;4.47;1.90;;;12.00;88.10;;;;;;5118121;27;20048;-76
2023/08/31 06:01:08;;;;;;;5.07;1.70;;;12.00;88.30;;;;;;5118139;27;20119;-76
2023/08/31 06:03:35;;;;;;;5.22;2.00;;;12.00;88.40;;;;;;5111749;27;20380;-76
2023/08/31 06:06:03;;;;;;;6.45;1.85;;;12.10;88.30;;;;;;5119707;27;20052;-77
2023/08/31 06:08:30;;;;;;;4.35;1.50;;;12.10;88.40;;;;;;5095648;28;20052;-76
2023/08/31 06:10:57;;;;;;;5.60;1.90;;;12.10;88.50;;;;;;5118009;27;20070;-76
2023/08/31 06:13:25;;;;;;;6.55;1.75;;;12.20;88.60;;;;;;5100448;27;20081;-76
2023/08/31 06:15:52;;;;;;;4.53;1.80;;;12.20;88.50;;;;;;5080282;28;20054;-77
2023/08/31 06:18:19;;;;;;;6.15;1.98;;;12.30;88.60;;;;;;5090853;27;20127;-76
2023/08/31 06:20:48;;;;;;;5.80;2.10;;;12.30;88.50;;;;;;5104849;27;20137;-76
2023/08/31 06:23:15;;;;;;;5.47;1.80;;;12.30;88.60;;;;;;5113654;27;20079;-76
2023/08/31 06:25:42;;;;;;;5.10;1.90;;;12.40;88.80;;;;;;5113057;27;20060;-76
2023/08/31 06:28:11;;;;;;;9.18;2.40;;;12.50;88.70;;;;;;5108711;27;20110;-77
2023/08/31 06:30:40;;;;;;;6.38;2.40;;;12.50;88.90;;;;;;5105542;27;20055;-76
2023/08/31 06:33:07;;;;;;;6.28;2.20;;;12.50;89.10;;;;;;5110639;27;20051;-76
2023/08/31 06:35:34;;;;;;;5.67;2.73;;;12.50;89.00;;;;;;5108454;27;20541;-77
2023/08/31 06:38:01;;;;;;;5.70;2.60;;;12.60;88.90;;;;;;5108475;27;20079;-76
2023/08/31 06:40:28;;;;;;;6.90;3.08;;;12.70;89.00;;;;;;5108449;27;20044;-76
2023/08/31 06:42:55;;;;;;;6.05;3.03;;;12.70;89.20;;;;;;5109110;27;20496;-76
2023/08/31 06:45:22;;;;;;;6.75;2.78;;;12.80;89.50;;;;;;5110164;27;20122;-76
2023/08/31 06:47:51;;;;;;;4.73;2.70;;;12.80;89.50;;;;;;5120249;27;20566;-76
2023/08/31 06:50:18;;;;;;;7.95;2.47;;;12.90;89.40;;;;;;5116365;27;20492;-76
2023/08/31 06:52:46;;;;;;;5.13;2.28;;;12.90;89.40;;;;;;5109716;27;20151;-76
2023/08/31 06:55:13;;;;;;;5.63;2.10;;;13.00;89.50;;;;;;5100455;27;20500;-76
2023/08/31 06:57:41;;;;;;;6.50;2.60;;;13.00;89.60;;;;;;5117528;27;20050;-75
2023/08/31 07:00:11;;;;;;;7.93;2.33;;;13.10;89.50;;;;;;5113481;27;20054;-76
2023/08/31 07:02:41;;;;;;;4.90;2.00;;;13.10;89.60;;;;;;5105227;27;20051;-76
2023/08/31 07:05:11;;;;;;;6.07;2.42;;;13.10;89.40;;;;;;5142766;27;20206;-77
2023/08/31 07:07:38;;;;;;;5.25;2.22;;;13.30;89.30;;;;;;5127509;27;20041;-77
2023/08/31 07:10:06;;;;;;;6.88;1.90;;;13.30;89.30;;;;;;5104266;27;20143;-77
2023/08/31 07:12:34;;;;;;;5.20;1.60;;;13.30;89.40;;;;;;5106699;27;21050;-76
2023/08/31 07:15:01;;;;;;;5.47;1.90;;;13.30;89.30;;;;;;5139570;27;20122;-75
2023/08/31 07:17:28;;;;;;;7.78;2.10;;;13.40;89.30;;;;;;5109223;27;20129;-75
2023/08/31 07:19:55;;;;;;;7.70;1.80;;;13.50;89.20;;;;;;5133631;27;20064;-75
2023/08/31 07:22:24;;;;;;;6.60;2.10;;;13.50;89.10;;;;;;5094316;27;20048;-75
2023/08/31 07:24:51;;;;;;;4.37;1.30;;;13.50;89.10;;;;;;5113869;27;20752;-76
2023/08/31 07:27:18;;;;;;;7.32;1.73;;;13.60;89.10;;;;;;5106972;27;20052;-76
2023/08/31 07:29:44;;;;;;;6.35;1.55;;;13.60;89.00;;;;;;5109248;27;20133;-76
2023/08/31 07:32:11;;;;;;;3.70;1.45;;;13.70;89.00;;;;;;5141197;27;20510;-77
2023/08/31 07:34:39;;;;;;;5.90;1.42;;;13.70;88.90;;;;;;5123362;27;20330;-77
2023/08/31 07:37:06;;;;;;;7.30;1.67;;;13.80;88.80;;;;;;5089017;27;20045;-76
2023/08/31 07:39:34;;;;;;;5.90;1.63;;;13.90;88.90;;;;;;5091025;27;20557;-77
2023/08/31 07:42:01;;;;;;;4.32;1.23;;;13.90;88.90;;;;;;5141211;27;20134;-77
2023/08/31 07:44:28;;;;;;;6.60;1.40;;;14.00;88.70;;;;;;5106721;27;20056;-77
2023/08/31 07:46:55;;;;;;;4.43;1.17;;;14.10;88.60;;;;;;5116692;27;20097;-77
2023/08/31 07:49:22;;;;;;;6.93;1.07;;;14.10;88.60;;;;;;5117105;27;20060;-76
2023/08/31 07:51:49;;;;;;;5.50;1.27;;;14.20;88.50;;;;;;5118111;27;20050;-77
2023/08/31 07:54:21;;;;;;;5.78;1.10;;;14.20;88.40;;;;;;5130530;27;20117;-77
2023/08/31 07:56:49;;;;;;;4.25;0.95;;;14.30;88.50;;;;;;5120948;27;20070;-77
2023/08/31 07:59:17;;;;;;;3.90;0.90;;;14.40;88.20;;;;;;5122395;27;20132;-77
2023/08/31 08:01:44;;;;;;;5.03;1.20;;;14.40;87.60;;;;;;5115156;27;20036;-77
2023/08/31 08:04:11;;;;;;;4.38;0.85;;;14.50;87.20;;;;;;5120169;27;20463;-77
2023/08/31 08:06:39;;;;;;;4.60;1.00;;;14.50;87.20;;;;;;5112584;27;20040;-77
2023/08/31 08:09:06;;;;;;;6.53;1.25;;;14.50;87.20;;;;;;5097371;28;20055;-78
2023/08/31 08:11:33;;;;;;;4.57;1.10;;;14.50;87.40;;;;;;5143185;27;21100;-78
2023/08/31 08:14:02;;;;;;;6.03;1.23;;;14.50;87.20;;;;;;5110552;27;20063;-77
2023/08/31 08:16:29;;;;;;;4.95;1.10;;;14.50;87.30;;;;;;5105396;27;20358;-78
2023/08/31 08:18:56;;;;;;;4.70;0.90;;;14.60;87.70;;;;;;5150727;27;20101;-77
2023/08/31 08:21:23;;;;;;;4.95;1.00;;;14.60;87.80;;;;;;5110485;27;20163;-78
2023/08/31 08:23:52;;;;;;;4.47;0.80;;;14.60;88.00;;;;;;5112031;27;20549;-78
2023/08/31 08:26:19;;;;;;;3.50;0.50;;;14.70;88.00;;;;;;5111421;27;20071;-77
2023/08/31 08:28:46;;;;;;;3.33;0.60;;;14.80;87.90;;;;;;5118101;27;20814;-78
2023/08/31 08:31:15;;;;;;;4.95;0.60;;;14.80;87.60;;;;;;5115267;27;20132;-78
2023/08/31 08:33:42;;;;;;;2.92;0.40;;;14.90;87.10;;;;;;5115425;27;20051;-78
2023/08/31 08:36:09;;;;;;;1.63;0.28;;;15.00;85.70;;;;;;5114136;27;20052;-78
2023/08/31 08:38:37;;;;;;;3.00;0.30;;;15.00;84.70;;;;;;5102399;27;20043;-78
2023/08/31 08:41:07;;;;;;;3.25;0.40;;;15.00;84.20;;;;;;5110588;27;20051;-78
2023/08/31 08:43:35;;;;;;;3.08;0.30;;;15.00;84.50;;;;;;5096426;27;20049;-78
2023/08/31 08:46:05;;;;;;;2.22;0.28;;;15.10;84.50;;;;;;5138710;27;20112;-78
2023/08/31 08:48:35;;;;;;;2.03;0.20;;;15.20;84.80;;;;;;5135016;27;20509;-78
2023/08/31 08:51:04;;;;;;;2.50;0.20;;;15.30;81.00;;;;;;5100002;27;20571;-77
2023/08/31 08:53:31;;;;;;;2.20;0.35;;;15.30;80.70;;;;;;5101873;27;20091;-77
2023/08/31 08:55:58;;;;;;;3.45;0.30;;;15.20;81.20;;;;;;5102236;27;20126;-77
2023/08/31 08:58:25;;;;;;;2.78;0.40;;;15.00;80.50;;;;;;5089148;27;20442;-78
2023/08/31 09:00:55;;;;;;;2.80;0.30;;;14.90;81.10;;;;;;5091608;27;20087;-78
2023/08/31 09:03:22;;;;;;;3.17;0.40;;;14.80;81.40;;;;;;5098174;27;20087;-79
2023/08/31 09:05:50;;;;;;;1.27;0.28;;;14.80;81.70;;;;;;5122959;27;20291;-78
2023/08/31 09:08:17;;;;;;;3.58;0.30;;;14.70;82.00;;;;;;5124008;27;20164;-78
2023/08/31 09:10:45;;;;;;;3.85;0.52;;;14.70;82.40;;;;;;5121721;27;20953;-78
2023/08/31 09:13:13;;;;;;;4.65;0.70;;;14.70;82.90;;;;;;5120564;27;20060;-77
2023/08/31 09:15:41;;;;;;;3.50;0.67;;;14.70;83.60;;;;;;5120833;27;20130;-77
2023/08/31 09:18:09;;;;;;;2.88;0.50;;;14.70;84.20;;;;;;5115454;27;20561;-78
2023/08/31 09:20:49;;;;;;;3.10;0.50;;;14.80;84.80;;;;;;5106662;27;20191;-78
2023/08/31 09:23:17;;;;;;;3.60;0.40;;;14.80;85.30;;;;;;5147310;27;20119;-78
2023/08/31 09:25:45;;;;;;;2.05;0.40;;;14.90;86.60;;;;;;5108313;27;20060;-78
2023/08/31 09:28:13;;;;;;;2.27;0.30;;;15.00;86.60;;;;;;5144107;27;20130;-78
2023/08/31 09:30:41;;;;;;;2.20;0.30;;;15.10;85.90;;;;;;5113796;27;20080;-78
2023/08/31 09:33:09;;;;;;;2.05;0.20;;;15.20;84.60;;;;;;5119465;27;20090;-78
2023/08/31 09:35:40;;;;;;;1.25;0.20;;;15.30;83.00;;;;;;5111915;27;20056;-78
2023/08/31 09:38:10;;;;;;;2.25;0.20;;;15.30;82.30;;;;;;5126800;27;20063;-78
2023/08/31 09:40:37;;;;;;;2.27;0.30;;;15.30;82.30;;;;;;5096056;27;20070;-78
2023/08/31 09:43:04;;;;;;;1.88;0.38;;;15.40;82.00;;;;;;5113794;27;20582;-78
2023/08/31 09:45:33;;;;;;;2.47;0.43;;;15.40;80.60;;;;;;5112796;27;20413;-79
2023/08/31 09:48:01;;;;;;;2.33;0.38;;;15.50;80.20;;;;;;5117392;27;20513;-78
2023/08/31 09:50:30;;;;;;;1.50;0.28;;;15.50;79.30;;;;;;5113285;27;20059;-78
2023/08/31 09:53:03;;;;;;;2.63;0.33;;;15.60;78.10;;;;;;5120415;27;20055;-78
2023/08/31 09:55:33;;;;;;;3.10;0.38;;;15.70;78.10;;;;;;5111658;27;20444;-78
2023/08/31 09:58:03;;;;;;;2.90;0.30;;;15.80;78.20;;;;;;5102947;27;20523;-79
2023/08/31 10:00:31;;;;;;;1.75;0.30;;;15.80;78.60;;;;;;5128285;27;20500;-78
2023/08/31 10:03:02;;;;;;;2.05;0.30;;;15.80;76.80;;;;;;5097737;27;20512;-79
2023/08/31 10:05:29;;;;;;;1.93;0.27;;;15.80;76.00;;;;;;5113827;27;20621;-78
2023/08/31 10:07:57;;;;;;;2.17;0.30;;;15.90;75.10;;;;;;5131983;27;20159;-79
2023/08/31 10:10:24;;;;;;;2.97;0.43;;;15.90;73.80;;;;;;5095458;27;20473;-78
2023/08/31 10:12:52;;;;;;;2.85;0.30;;;15.90;75.00;;;;;;5087135;27;20044;-78
2023/08/31 10:15:20;;;;;;;2.03;0.22;;;16.00;75.50;;;;;;5097137;27;20143;-78
2023/08/31 10:17:47;;;;;;;1.60;0.23;;;16.00;74.70;;;;;;5087238;28;20053;-78
2023/08/31 10:20:16;;;;;;;1.35;0.20;;;16.00;75.00;;;;;;5072158;28;20139;-78
2023/08/31 10:22:44;;;;;;;1.92;0.30;;;16.10;74.30;;;;;;5097438;27;20044;-78
2023/08/31 10:25:11;;;;;;;2.17;0.40;;;16.20;75.50;;;;;;5106748;27;20052;-79
2023/08/31 10:27:47;;;;;;;2.45;0.35;;;16.30;73.60;;;;;;5109145;27;20055;-78
2023/08/31 10:30:25;;;;;;;2.20;0.40;;;16.40;74.70;;;;;;5115194;27;20460;-77
2023/08/31 10:33:18;;;;;;;5.15;0.65;;;16.40;75.20;;;;;;5103025;27;20708;-78
2023/08/31 10:35:50;;;;;;;2.72;0.30;;;16.50;74.70;;;;;;5089680;28;20040;-78
2023/08/31 10:38:23;;;;;;;3.65;0.30;;;16.50;74.70;;;;;;5108216;28;20060;-78
2023/08/31 10:41:20;;;;;;;1.92;0.30;;;16.50;74.50;;;;;;5106948;27;20096;-78
2023/08/31 10:43:50;;;;;;;3.27;0.60;;;16.50;74.30;;;;;;5098568;27;20041;-78
2023/08/31 10:46:27;;;;;;;2.88;0.30;;;16.50;74.40;;;;;;5090308;28;20150;-78
2023/08/31 10:48:55;;;;;;;1.88;0.30;;;16.50;73.70;;;;;;5103754;27;20578;-79
2023/08/31 10:51:26;;;;;;;1.80;0.20;;;16.50;74.40;;;;;;5122324;27;20050;-78
2023/08/31 10:54:04;;;;;;;1.88;0.20;;;16.50;72.90;;;;;;5108753;27;20041;-77
2023/08/31 10:56:31;;;;;;;2.27;0.40;;;16.50;72.00;;;;;;5106328;27;20063;-78
2023/08/31 10:58:59;;;;;;;1.58;0.20;;;16.50;70.50;;;;;;5094238;27;20052;-78
2023/08/31 11:01:57;;;;;;;2.60;0.32;;;16.50;69.50;;;;;;5108014;27;20051;-78
2023/08/31 11:04:24;;;;;;;2.47;0.30;;;16.60;69.60;;;;;;5113740;27;20057;-78
2023/08/31 11:07:12;;;;;;;2.25;0.30;;;16.60;69.20;;;;;;5096213;27;20550;-77
2023/08/31 11:09:40;;;;;;;1.60;0.20;;;16.70;69.20;;;;;;5100740;27;20717;-78
2023/08/31 11:12:08;;;;;;;3.90;0.40;;;16.70;69.90;;;;;;5089541;27;20542;-78
2023/08/31 11:14:34;;;;;;;2.97;0.50;;;16.70;69.60;;;;;;5100506;28;20045;-78
2023/08/31 11:17:04;;;;;;;4.25;0.50;;;16.80;71.20;;;;;;5097539;27;20181;-78
2023/08/31 11:19:33;;;;;;;3.88;0.65;;;16.80;72.10;;;;;;5097511;27;20457;-78
2023/08/31 11:22:02;;;;;;;3.83;0.33;;;16.90;71.40;;;;;;5100622;27;20055;-76
2023/08/31 11:24:29;;;;;;;4.45;0.50;;;17.00;70.20;;;;;;5084371;27;20601;-77
2023/08/31 11:26:55;;;;;;;2.45;0.40;;;17.00;70.80;;;;;;5108774;27;20064;-77
2023/08/31 11:29:22;;;;;;;3.33;0.40;;;17.20;70.10;;;;;;5115054;27;20052;-76
2023/08/31 11:31:49;;;;;;;2.47;0.40;;;17.20;70.20;;;;;;5108513;27;20054;-75
2023/08/31 11:34:19;;;;;;;3.83;0.40;;;17.20;68.90;;;;;;5132746;27;20122;-77
2023/08/31 11:36:47;;;;;;;2.85;0.32;;;17.20;69.40;;;;;;5105458;27;20055;-76
2023/08/31 11:39:15;;;;;;;3.42;0.63;;;17.30;69.70;;;;;;5107170;27;20511;-76
2023/08/31 11:41:43;;;;;;;3.20;0.40;;;17.30;69.90;;;;;;5090730;27;20049;-76
2023/08/31 11:44:11;;;;;;;3.17;0.50;;;17.40;70.40;;;;;;5098044;27;20131;-76
2023/08/31 11:46:38;;;;;;;4.00;0.50;;;17.40;69.60;;;;;;5097663;27;20145;-77
2023/08/31 11:49:07;;;;;;;3.15;0.50;;;17.40;70.30;;;;;;5097063;27;20048;-77
2023/08/31 11:51:36;;;;;;;4.20;0.60;;;17.40;70.20;;;;;;5144073;27;20052;-76
2023/08/31 11:54:03;;;;;;;3.45;0.30;;;17.40;69.90;;;;;;5115123;27;20183;-76
2023/08/31 11:56:40;;;;;;;4.13;0.40;;;17.40;70.30;;;;;;5155944;27;20130;-77
2023/08/31 11:59:11;;;;;;;2.40;0.30;;;17.40;71.30;;;;;;5116428;27;20052;-77
2023/08/31 12:01:40;;;;;;;2.38;0.35;;;17.40;70.30;;;;;;5115461;27;20064;-77
2023/08/31 12:04:13;;;;;;;3.45;0.70;;;17.40;69.60;;;;;;5135234;27;20525;-76
2023/08/31 12:06:41;;;;;;;5.22;0.30;;;17.40;70.60;;;;;;5111306;27;20084;-76
2023/08/31 12:09:09;;;;;;;3.30;0.75;;;17.40;70.50;;;;;;5113742;27;20087;-75
2023/08/31 12:11:37;;;;;;;3.67;0.50;;;17.40;70.90;;;;;;5123130;27;20075;-74
2023/08/31 12:14:18;;;;;;;4.15;0.60;;;17.40;70.60;;;;;;5119264;27;20043;-75
2023/08/31 12:16:45;;;;;;;3.13;0.50;;;17.40;69.00;;;;;;5149135;27;20054;-75
2023/08/31 12:19:12;;;;;;;1.38;0.22;;;17.40;70.80;;;;;;5115803;27;20589;-76
2023/08/31 12:21:44;;;;;;;2.50;0.40;;;17.40;70.30;;;;;;5089246;28;20055;-75
2023/08/31 12:24:11;;;;;;;3.77;0.40;;;17.40;70.40;;;;;;5115227;27;20054;-76
2023/08/31 12:26:39;;;;;;;2.67;0.40;;;17.40;69.60;;;;;;5088120;27;21056;-76
2023/08/31 12:29:06;;;;;;;3.60;0.40;;;17.40;69.30;;;;;;5110844;28;20044;-75
2023/08/31 12:31:34;;;;;;;3.05;0.70;;;17.40;69.60;;;;;;5084745;28;20070;-75
2023/08/31 12:34:04;;;;;;;2.95;0.30;;;17.40;69.80;;;;;;5106565;27;20086;-75
2023/08/31 12:36:31;;;;;;;3.33;0.30;;;17.40;71.00;;;;;;5107612;27;20048;-75
2023/08/31 12:39:01;;;;;;;1.83;0.30;;;17.40;71.40;;;;;;5106226;27;20048;-75
2023/08/31 12:41:28;;;;;;;3.33;0.50;;;17.40;72.00;;;;;;5093847;27;20048;-76
2023/08/31 12:43:55;;;;;;;3.53;0.50;;;17.50;71.90;;;;;;5106593;27;20072;-75
2023/08/31 12:46:22;;;;;;;5.13;0.55;;;17.60;71.10;;;;;;5105443;27;20055;-75
2023/08/31 12:48:49;;;;;;;4.13;0.60;;;17.60;70.70;;;;;;5087405;28;20040;-75
2023/08/31 12:51:16;;;;;;;2.78;0.40;;;17.70;70.80;;;;;;5136532;27;20417;-75
2023/08/31 12:53:43;;;;;;;2.60;0.38;;;17.70;71.10;;;;;;5088494;27;20485;-75
2023/08/31 12:56:11;;;;;;;2.72;0.40;;;17.70;71.50;;;;;;5097986;27;20054;-75